Time;durP1;ratioP1;P1;durP2;ratioP2;P2;SDS_P1;SDS_P2;PMS_P1;PMS_P2;Temp;Humidity;BMP_temperature;BMP_pressure;BME280_temperature;BME280_humidity;BME280_pressure;Samples;Min_cycle;Max_cycle;Signal;HPM_P1;HPM_P2
2022/11/10 00:00:34;;;;;;;4.85;2.80;;;11.10;99.90;;;;;;5018821;28;20022;-82
2022/11/10 00:03:02;;;;;;;3.10;2.80;;;11.10;99.90;;;;;;5001574;28;20053;-81
2022/11/10 00:05:28;;;;;;;3.08;2.85;;;11.20;99.90;;;;;;5017086;28;20033;-82
2022/11/10 00:07:53;;;;;;;3.42;3.13;;;11.20;99.90;;;;;;5016939;28;20093;-82
2022/11/10 00:10:19;;;;;;;2.55;2.35;;;11.20;99.90;;;;;;5018121;28;20060;-80
2022/11/10 00:12:44;;;;;;;2.50;2.30;;;11.20;99.90;;;;;;5018036;28;20030;-81
2022/11/10 00:17:55;;;;;;;2.67;2.33;;;11.10;99.90;;;;;;5018084;28;20097;-82
2022/11/10 00:20:20;;;;;;;2.30;2.10;;;11.10;99.90;;;;;;5007176;28;20050;-83
2022/11/10 00:22:46;;;;;;;2.70;2.50;;;11.10;99.90;;;;;;5018780;28;20028;-83
2022/11/10 00:25:12;;;;;;;3.05;2.40;;;11.10;99.90;;;;;;5014879;28;20056;-82
2022/11/10 00:27:37;;;;;;;3.03;2.45;;;11.10;99.90;;;;;;5014590;28;20042;-83
2022/11/10 00:30:04;;;;;;;2.08;1.98;;;11.10;99.90;;;;;;5001466;28;20026;-82
2022/11/10 00:32:30;;;;;;;3.08;1.90;;;11.10;99.90;;;;;;5017368;28;20072;-83
2022/11/10 00:34:56;;;;;;;1.98;1.77;;;11.10;99.90;;;;;;5017063;28;20030;-83
2022/11/10 00:37:21;;;;;;;3.30;2.08;;;11.20;99.90;;;;;;5018077;28;20041;-82
2022/11/10 00:39:47;;;;;;;6.43;3.13;;;11.10;99.90;;;;;;5018501;28;20072;-81
2022/11/10 00:42:13;;;;;;;2.10;1.63;;;11.10;99.90;;;;;;5018115;28;20462;-82
2022/11/10 00:44:39;;;;;;;2.20;2.00;;;11.10;99.90;;;;;;5017370;28;20032;-82
2022/11/10 00:47:05;;;;;;;2.22;2.03;;;11.10;99.90;;;;;;4999858;28;20331;-82
2022/11/10 00:49:30;;;;;;;2.00;1.80;;;11.10;99.90;;;;;;5018341;28;20083;-82
2022/11/10 00:51:56;;;;;;;2.20;2.00;;;11.10;99.90;;;;;;5029385;28;20025;-80
2022/11/10 00:54:22;;;;;;;1.60;1.50;;;11.20;99.90;;;;;;5033361;28;20516;-79
2022/11/10 00:56:48;;;;;;;2.15;1.95;;;11.10;99.90;;;;;;5026105;28;20065;-81
2022/11/10 00:59:13;;;;;;;1.67;1.52;;;11.20;99.90;;;;;;5002529;28;20426;-83
2022/11/10 01:01:39;;;;;;;1.25;1.15;;;11.10;99.90;;;;;;5029559;28;20057;-79
2022/11/10 01:04:05;;;;;;;1.50;1.27;;;11.10;99.90;;;;;;5016372;28;20045;-79
2022/11/10 01:06:30;;;;;;;2.13;1.70;;;11.10;99.90;;;;;;5023609;28;20038;-82
2022/11/10 01:08:56;;;;;;;1.45;1.35;;;11.10;99.90;;;;;;5018132;28;20356;-81
2022/11/10 01:11:27;;;;;;;1.80;1.58;;;11.10;99.90;;;;;;5002010;28;20553;-83
2022/11/10 01:13:53;;;;;;;1.40;1.30;;;11.10;99.90;;;;;;5020862;28;20125;-82
2022/11/10 01:16:25;;;;;;;1.27;1.17;;;11.10;99.90;;;;;;5020137;28;20120;-83
2022/11/10 01:18:54;;;;;;;1.98;1.50;;;11.10;99.90;;;;;;5003699;28;20026;-82
2022/11/10 01:21:20;;;;;;;1.58;1.35;;;11.10;99.90;;;;;;5021712;28;20490;-82
2022/11/10 01:23:47;;;;;;;2.60;1.70;;;11.10;99.90;;;;;;5020656;28;20110;-82
2022/11/10 01:26:13;;;;;;;1.88;1.40;;;11.10;99.90;;;;;;5033863;28;20040;-79
2022/11/10 01:28:39;;;;;;;1.75;1.65;;;11.10;99.90;;;;;;5038279;28;20029;-77
2022/11/10 01:33:50;;;;;;;1.17;1.10;;;11.10;99.90;;;;;;5133607;27;20489;-79
2022/11/10 01:36:16;;;;;;;1.23;1.15;;;11.10;99.90;;;;;;5133498;28;20032;-78
2022/11/10 01:38:42;;;;;;;0.88;0.80;;;11.10;99.90;;;;;;5115352;28;20032;-79
2022/11/10 01:41:11;;;;;;;0.90;0.90;;;11.10;99.90;;;;;;5126662;28;20069;-82
2022/11/10 01:43:37;;;;;;;1.13;1.05;;;11.10;99.90;;;;;;5134939;27;20016;-82
2022/11/10 01:46:05;;;;;;;1.88;0.77;;;11.10;99.90;;;;;;5139786;28;20144;-81
2022/11/10 01:48:45;;;;;;;0.55;0.55;;;11.10;99.90;;;;;;5131732;27;20145;-81
2022/11/10 01:51:26;;;;;;;1.23;0.90;;;11.10;99.90;;;;;;5126537;28;20149;-82
2022/11/10 01:54:03;;;;;;;1.45;1.13;;;11.10;99.90;;;;;;5116933;28;20023;-80
2022/11/10 01:56:31;;;;;;;1.15;0.98;;;11.10;99.90;;;;;;5130838;28;20161;-83
2022/11/10 01:59:01;;;;;;;1.73;0.98;;;11.10;99.90;;;;;;5123470;28;20008;-81
2022/11/10 02:01:26;;;;;;;1.83;0.95;;;11.00;99.90;;;;;;5117536;28;20020;-83
2022/11/10 02:04:05;;;;;;;0.70;0.70;;;11.00;99.90;;;;;;5110472;28;20091;-82
2022/11/10 02:06:35;;;;;;;1.65;0.93;;;11.00;99.90;;;;;;5123699;28;20075;-81
2022/11/10 02:09:00;;;;;;;0.90;0.80;;;11.00;99.90;;;;;;5129804;28;20020;-81
2022/11/10 02:11:27;;;;;;;0.60;0.60;;;11.00;99.90;;;;;;5130860;28;20501;-81
2022/11/10 02:13:54;;;;;;;0.60;0.60;;;11.00;99.90;;;;;;5131520;28;20149;-83
2022/11/10 02:16:21;;;;;;;1.02;0.75;;;11.00;99.90;;;;;;5131190;27;20051;-82
2022/11/10 02:18:47;;;;;;;0.50;0.50;;;11.00;99.90;;;;;;5108752;28;20057;-83
2022/11/10 02:21:16;;;;;;;1.23;0.70;;;11.00;99.90;;;;;;5126661;28;20059;-83
2022/11/10 02:23:45;;;;;;;0.50;0.45;;;10.90;99.90;;;;;;5130630;28;20027;-83
2022/11/10 02:26:13;;;;;;;1.35;0.73;;;10.90;99.90;;;;;;5138709;28;20032;-81
2022/11/10 02:28:38;;;;;;;0.50;0.50;;;10.90;99.90;;;;;;5115726;28;20449;-82
2022/11/10 02:31:05;;;;;;;0.85;0.55;;;10.90;99.90;;;;;;5127012;28;20037;-80
2022/11/10 02:33:31;;;;;;;1.05;0.60;;;10.90;99.90;;;;;;5132545;28;20032;-81
2022/11/10 02:35:56;;;;;;;0.75;0.75;;;10.80;99.90;;;;;;5130804;28;20067;-82
2022/11/10 02:38:22;;;;;;;0.47;0.47;;;10.80;99.90;;;;;;5109933;28;20040;-82
2022/11/10 02:40:49;;;;;;;0.73;0.65;;;10.90;99.90;;;;;;5141644;28;20023;-82
2022/11/10 02:43:17;;;;;;;0.45;0.40;;;10.90;99.90;;;;;;5135857;27;20027;-82
2022/11/10 02:45:45;;;;;;;1.67;0.60;;;10.90;99.90;;;;;;5120789;28;20422;-82
2022/11/10 02:48:13;;;;;;;0.43;0.40;;;10.90;99.90;;;;;;5111208;28;20028;-83
2022/11/10 02:50:39;;;;;;;0.50;0.50;;;10.80;99.90;;;;;;5101848;28;20046;-83
2022/11/10 02:53:05;;;;;;;1.30;0.60;;;10.80;99.90;;;;;;5104279;28;20027;-83
2022/11/10 02:55:31;;;;;;;0.57;0.57;;;10.80;99.90;;;;;;5123586;28;20055;-83
2022/11/10 02:57:57;;;;;;;0.50;0.50;;;10.80;99.90;;;;;;5111575;28;20079;-83
2022/11/10 03:00:23;;;;;;;1.23;0.52;;;10.80;99.90;;;;;;5121782;27;20043;-83
2022/11/10 03:02:54;;;;;;;1.25;0.52;;;10.80;99.90;;;;;;5115179;28;20082;-83
2022/11/10 03:05:19;;;;;;;1.30;0.90;;;10.90;99.90;;;;;;5112750;28;20059;-83
2022/11/10 03:07:50;;;;;;;1.33;0.70;;;10.90;99.90;;;;;;5114481;28;20039;-82
2022/11/10 03:10:16;;;;;;;1.83;0.52;;;10.80;99.90;;;;;;5124978;28;20076;-82
2022/11/10 03:12:42;;;;;;;1.85;0.57;;;10.70;99.90;;;;;;5119148;28;20135;-84
2022/11/10 03:15:08;;;;;;;1.63;0.90;;;10.60;99.90;;;;;;5116245;28;20091;-82
2022/11/10 03:17:33;;;;;;;2.33;0.95;;;10.50;99.90;;;;;;5117702;28;20068;-82
2022/11/10 03:19:59;;;;;;;1.70;0.82;;;10.30;99.90;;;;;;5117805;28;20042;-82
2022/11/10 03:22:25;;;;;;;3.70;1.02;;;10.20;99.90;;;;;;5111414;28;20024;-83
2022/11/10 03:24:50;;;;;;;4.38;0.60;;;10.20;99.90;;;;;;5092444;28;20063;-82
2022/11/10 03:27:16;;;;;;;3.38;1.00;;;10.10;99.90;;;;;;5126036;28;20015;-83
2022/11/10 03:29:41;;;;;;;1.30;1.00;;;10.00;99.90;;;;;;5117867;28;20020;-83
2022/11/10 03:32:07;;;;;;;3.35;1.00;;;10.00;99.90;;;;;;5119050;28;20123;-82
2022/11/10 03:34:33;;;;;;;4.93;1.30;;;9.90;99.90;;;;;;5109099;28;20032;-83
2022/11/10 03:36:58;;;;;;;2.97;1.13;;;9.90;99.90;;;;;;5107429;28;20047;-83
2022/11/10 03:39:24;;;;;;;1.63;1.00;;;9.80;99.90;;;;;;5100920;28;20015;-83
2022/11/10 03:41:49;;;;;;;2.35;1.00;;;9.90;99.90;;;;;;5123413;28;20408;-83
2022/11/10 03:44:15;;;;;;;2.25;1.00;;;9.90;99.90;;;;;;5106058;28;20028;-82
2022/11/10 03:46:41;;;;;;;1.67;0.95;;;9.90;99.90;;;;;;5110531;28;20059;-82
2022/11/10 03:49:06;;;;;;;2.45;1.20;;;9.90;99.90;;;;;;5117201;28;20020;-82
2022/11/10 03:51:32;;;;;;;3.35;1.08;;;9.90;99.90;;;;;;5103426;28;20023;-83
2022/11/10 03:53:58;;;;;;;3.95;1.10;;;9.90;99.90;;;;;;5118733;28;20082;-83
2022/11/10 03:56:23;;;;;;;2.42;1.00;;;9.90;99.90;;;;;;5123939;28;20042;-82
2022/11/10 03:58:49;;;;;;;3.95;1.13;;;9.80;99.90;;;;;;5127374;28;20110;-83
2022/11/10 04:01:14;;;;;;;3.55;1.00;;;9.80;99.90;;;;;;5128884;28;20023;-83
2022/11/10 04:03:40;;;;;;;4.18;1.00;;;9.90;99.90;;;;;;5120779;28;20030;-83
2022/11/10 04:09:00;;;;;;;1.77;1.13;;;9.90;99.90;;;;;;5116666;28;20070;-83
2022/11/10 04:16:59;;;;;;;1.95;0.93;;;9.90;99.90;;;;;;5105528;28;20073;-83
2022/11/10 04:19:25;;;;;;;1.20;0.88;;;9.90;99.90;;;;;;5087088;28;20024;-83
2022/11/10 04:21:51;;;;;;;0.50;0.50;;;10.00;99.90;;;;;;5118050;28;20032;-84
2022/11/10 04:24:17;;;;;;;1.20;0.65;;;10.00;99.90;;;;;;5117846;28;20392;-84
2022/11/10 04:26:43;;;;;;;0.50;0.50;;;10.00;99.90;;;;;;5109372;28;20118;-83
2022/11/10 04:29:11;;;;;;;1.63;1.00;;;10.10;99.90;;;;;;5101204;28;20162;-83
2022/11/10 04:31:40;;;;;;;0.57;0.57;;;10.00;99.90;;;;;;5101562;28;20028;-83
2022/11/10 04:34:08;;;;;;;0.75;0.70;;;10.10;99.90;;;;;;5105806;28;20025;-83
2022/11/10 04:36:36;;;;;;;1.10;1.00;;;10.10;99.90;;;;;;5112745;28;20004;-83
2022/11/10 04:39:04;;;;;;;2.50;1.10;;;10.00;99.90;;;;;;5111043;28;20024;-82
2022/11/10 04:41:30;;;;;;;2.90;1.40;;;10.10;99.90;;;;;;5099822;28;20042;-83
2022/11/10 04:43:57;;;;;;;3.30;0.80;;;10.10;99.90;;;;;;5115340;28;20063;-83
2022/11/10 04:46:26;;;;;;;1.92;1.00;;;10.10;99.90;;;;;;5113961;28;20036;-83
2022/11/10 04:48:53;;;;;;;2.03;1.02;;;10.10;99.90;;;;;;5104471;28;20095;-84
2022/11/10 04:51:23;;;;;;;0.65;0.60;;;10.20;99.90;;;;;;5105318;28;20056;-82
2022/11/10 04:53:49;;;;;;;2.85;0.82;;;10.20;99.90;;;;;;5116042;28;20035;-83
2022/11/10 04:56:17;;;;;;;2.53;1.02;;;10.20;99.90;;;;;;5127275;28;20023;-83
2022/11/10 04:58:43;;;;;;;2.58;1.17;;;10.20;99.90;;;;;;5111093;28;20024;-83
2022/11/10 05:01:14;;;;;;;2.35;0.88;;;10.30;99.90;;;;;;5108995;28;20039;-82
2022/11/10 05:03:41;;;;;;;1.75;0.90;;;10.30;99.90;;;;;;5115915;28;20096;-82
2022/11/10 05:06:07;;;;;;;2.83;1.25;;;10.20;99.90;;;;;;5114358;28;20083;-83
2022/11/10 05:08:33;;;;;;;9.30;2.22;;;10.20;99.90;;;;;;5109665;28;20032;-83
2022/11/10 05:10:59;;;;;;;3.85;1.88;;;10.10;99.90;;;;;;5110249;28;20095;-83
2022/11/10 05:13:24;;;;;;;1.90;1.33;;;10.20;99.90;;;;;;5106858;28;20020;-84
2022/11/10 05:15:51;;;;;;;2.97;1.58;;;10.20;99.90;;;;;;5115076;28;20024;-83
2022/11/10 05:18:16;;;;;;;3.40;1.70;;;10.10;99.90;;;;;;5127647;28;20090;-83
2022/11/10 05:20:42;;;;;;;2.60;1.83;;;10.10;99.90;;;;;;5110578;28;20040;-84
2022/11/10 05:25:52;;;;;;;2.08;1.88;;;10.10;99.90;;;;;;5095944;28;20077;-83
2022/11/10 05:28:18;;;;;;;3.25;2.08;;;10.10;99.90;;;;;;5124117;28;20036;-83
2022/11/10 05:30:44;;;;;;;2.72;1.60;;;10.10;99.90;;;;;;5116749;28;20049;-81
2022/11/10 05:33:10;;;;;;;2.20;1.30;;;10.10;99.90;;;;;;5118368;28;20074;-82
2022/11/10 05:35:36;;;;;;;1.35;1.10;;;10.10;99.90;;;;;;5101680;28;20464;-82
2022/11/10 05:38:03;;;;;;;1.65;1.10;;;10.10;99.90;;;;;;5096890;28;20028;-82
2022/11/10 05:40:29;;;;;;;2.15;0.90;;;10.10;99.90;;;;;;5099482;28;20043;-82
2022/11/10 05:42:55;;;;;;;4.28;1.23;;;10.20;99.90;;;;;;5081410;28;20040;-82
2022/11/10 05:45:23;;;;;;;5.13;1.58;;;10.20;99.90;;;;;;5083203;28;20068;-82
2022/11/10 05:47:49;;;;;;;3.88;1.33;;;10.20;99.90;;;;;;5092683;28;20100;-82
2022/11/10 05:50:15;;;;;;;2.97;1.13;;;10.10;99.90;;;;;;5085997;28;20111;-82
2022/11/10 05:52:46;;;;;;;1.50;0.80;;;10.10;99.90;;;;;;5083745;28;20040;-83
2022/11/10 05:55:13;;;;;;;1.02;0.90;;;10.10;99.90;;;;;;5101847;28;20111;-83
2022/11/10 05:57:46;;;;;;;4.57;1.20;;;10.10;99.90;;;;;;5107737;28;20031;-82
2022/11/10 06:00:17;;;;;;;2.50;1.23;;;10.10;99.90;;;;;;5113005;28;20012;-80
2022/11/10 06:02:48;;;;;;;2.65;1.10;;;10.10;99.90;;;;;;5109554;28;20032;-83
2022/11/10 06:05:14;;;;;;;1.70;1.05;;;10.10;99.90;;;;;;5105172;28;20107;-81
2022/11/10 06:07:40;;;;;;;1.50;1.00;;;10.10;99.90;;;;;;5122216;28;20027;-82
2022/11/10 06:10:06;;;;;;;1.90;1.30;;;10.10;99.90;;;;;;5126123;28;20027;-83
2022/11/10 06:12:32;;;;;;;3.53;1.27;;;10.20;99.90;;;;;;5117545;28;20031;-80
2022/11/10 06:15:01;;;;;;;4.40;1.27;;;10.20;99.90;;;;;;5090211;28;20095;-81
2022/11/10 06:17:27;;;;;;;1.92;1.30;;;10.20;99.90;;;;;;5120433;28;20019;-81
2022/11/10 06:19:53;;;;;;;2.15;1.35;;;10.20;99.90;;;;;;5123587;28;20106;-81
2022/11/10 06:22:19;;;;;;;3.00;1.13;;;10.20;99.90;;;;;;5119785;28;20081;-83
2022/11/10 06:24:45;;;;;;;2.70;1.15;;;10.20;99.90;;;;;;5086359;28;20043;-81
2022/11/10 06:27:11;;;;;;;1.65;0.80;;;10.20;99.90;;;;;;5127701;28;20039;-81
2022/11/10 06:29:37;;;;;;;3.05;1.70;;;10.20;99.90;;;;;;5124572;28;20031;-82
2022/11/10 06:32:10;;;;;;;2.35;1.10;;;10.30;99.90;;;;;;5098259;28;20119;-82
2022/11/10 06:34:36;;;;;;;2.03;1.58;;;10.30;99.90;;;;;;5103296;28;20036;-82
2022/11/10 06:37:04;;;;;;;5.45;1.95;;;10.30;99.90;;;;;;5105518;28;20016;-86
2022/11/10 06:39:29;;;;;;;4.78;1.33;;;10.30;99.90;;;;;;5105156;28;20030;-85
2022/11/10 06:41:55;;;;;;;4.82;1.60;;;10.30;99.90;;;;;;5110753;28;20031;-83
2022/11/10 06:44:21;;;;;;;1.33;1.23;;;10.30;99.90;;;;;;5107042;28;20024;-82
2022/11/10 06:46:46;;;;;;;2.05;1.20;;;10.30;99.90;;;;;;5108080;28;20027;-82
2022/11/10 06:49:12;;;;;;;1.55;1.02;;;10.30;99.90;;;;;;5110051;28;20080;-82
2022/11/10 06:51:38;;;;;;;2.10;1.00;;;10.30;99.90;;;;;;5117633;28;20016;-80
2022/11/10 06:54:03;;;;;;;7.50;2.30;;;10.30;99.90;;;;;;5119058;28;20016;-81
2022/11/10 06:56:29;;;;;;;3.60;1.80;;;10.30;99.90;;;;;;5117414;28;20020;-82
2022/11/10 06:58:55;;;;;;;3.15;1.30;;;10.30;99.90;;;;;;5119468;28;20087;-79
2022/11/10 07:01:25;;;;;;;5.03;1.52;;;10.30;99.90;;;;;;5118162;28;20012;-81
2022/11/10 07:03:51;;;;;;;2.35;1.70;;;10.30;99.90;;;;;;5118331;28;20027;-81
2022/11/10 07:06:17;;;;;;;3.00;1.25;;;10.20;99.90;;;;;;5116404;28;20017;-82
2022/11/10 07:08:43;;;;;;;1.73;1.35;;;10.20;99.90;;;;;;5117532;28;20082;-82
2022/11/10 07:11:09;;;;;;;5.47;1.80;;;10.20;99.90;;;;;;5116363;28;20054;-81
2022/11/10 07:13:38;;;;;;;4.30;1.95;;;10.10;99.90;;;;;;5138816;28;20028;-82
2022/11/10 07:16:06;;;;;;;2.40;1.40;;;10.00;99.90;;;;;;5138682;28;20035;-81
2022/11/10 07:18:32;;;;;;;4.03;1.85;;;10.00;99.90;;;;;;5137702;28;20088;-82
2022/11/10 07:20:58;;;;;;;7.00;2.17;;;9.90;99.90;;;;;;5139075;27;20072;-81
2022/11/10 07:23:23;;;;;;;3.35;1.85;;;10.00;99.90;;;;;;5138962;28;20146;-81
2022/11/10 07:25:49;;;;;;;2.38;1.80;;;10.10;99.90;;;;;;5138989;28;20016;-81
2022/11/10 07:28:15;;;;;;;2.58;1.55;;;10.20;99.90;;;;;;5138453;27;20030;-81
2022/11/10 07:30:41;;;;;;;5.05;1.95;;;10.20;99.90;;;;;;5128243;28;20031;-81
2022/11/10 07:33:12;;;;;;;3.78;2.00;;;10.30;99.90;;;;;;5087186;28;20052;-81
2022/11/10 07:35:38;;;;;;;6.63;2.17;;;10.40;99.90;;;;;;5088623;28;20025;-83
2022/11/10 07:38:07;;;;;;;4.07;2.20;;;10.40;99.90;;;;;;5089020;28;20136;-82
2022/11/10 07:40:34;;;;;;;4.90;1.75;;;10.50;99.90;;;;;;5089655;28;20055;-83
2022/11/10 07:43:00;;;;;;;2.78;1.70;;;10.70;99.90;;;;;;5118255;28;20031;-82
2022/11/10 07:45:27;;;;;;;2.67;1.75;;;10.90;99.90;;;;;;5126948;28;20030;-81
2022/11/10 07:48:04;;;;;;;4.50;1.60;;;11.20;99.90;;;;;;5134218;28;20051;-81
2022/11/10 07:50:30;;;;;;;2.10;1.65;;;11.40;99.90;;;;;;5137879;28;20092;-82
2022/11/10 07:53:14;;;;;;;3.00;1.55;;;11.60;99.90;;;;;;5110453;28;20028;-81
2022/11/10 07:55:43;;;;;;;3.22;1.48;;;11.70;99.90;;;;;;5090075;28;20458;-82
2022/11/10 07:58:18;;;;;;;2.67;1.65;;;11.80;99.90;;;;;;5096154;28;20023;-82
2022/11/10 08:00:45;;;;;;;5.07;1.52;;;11.90;99.90;;;;;;5102352;28;20049;-82
2022/11/10 08:03:16;;;;;;;2.08;1.40;;;11.90;99.90;;;;;;5091619;28;20032;-80
2022/11/10 08:05:42;;;;;;;2.13;1.50;;;11.80;99.90;;;;;;5104471;28;20500;-81
2022/11/10 08:08:08;;;;;;;1.70;1.38;;;11.80;99.90;;;;;;5109960;28;20046;-80
2022/11/10 08:10:34;;;;;;;2.65;1.77;;;11.80;99.90;;;;;;5103094;28;20023;-81
2022/11/10 08:13:02;;;;;;;5.00;1.90;;;11.80;99.90;;;;;;5112211;28;20081;-80
2022/11/10 08:15:30;;;;;;;2.72;1.40;;;11.80;99.90;;;;;;5105990;28;20321;-81
2022/11/10 08:17:59;;;;;;;4.78;1.77;;;11.80;99.90;;;;;;5092517;28;20027;-80
2022/11/10 08:20:25;;;;;;;5.75;2.15;;;11.80;99.90;;;;;;5087709;28;20016;-81
2022/11/10 08:22:57;;;;;;;2.00;1.40;;;11.80;99.90;;;;;;5084439;28;20488;-82
2022/11/10 08:25:23;;;;;;;5.72;2.08;;;11.90;99.90;;;;;;5083660;28;20472;-81
2022/11/10 08:27:54;;;;;;;2.95;1.70;;;12.00;99.90;;;;;;5082034;28;20032;-79
2022/11/10 08:30:20;;;;;;;3.75;1.77;;;12.10;99.90;;;;;;5083938;28;20032;-81
2022/11/10 08:32:56;;;;;;;1.70;1.60;;;12.20;99.90;;;;;;5079336;23;20106;-81
2022/11/10 08:36:28;;;;;;;;;;;;;;;;;;;;;
2022/11/10 08:39:05;;;;;;;4.10;1.90;;;12.40;99.90;;;;;;5046492;28;20049;-82
2022/11/10 08:41:52;;;;;;;2.85;1.30;;;12.50;99.90;;;;;;5048242;28;20053;-79
2022/11/10 08:44:20;;;;;;;3.72;1.80;;;12.50;99.90;;;;;;5054534;28;20022;-80
2022/11/10 08:47:02;;;;;;;4.68;1.35;;;12.40;99.90;;;;;;5050550;28;20067;-80
2022/11/10 08:49:36;;;;;;;3.25;1.65;;;12.40;99.90;;;;;;5050900;28;20048;-80
2022/11/10 08:53:02;;;;;;;3.92;1.52;;;12.40;99.90;;;;;;5052835;28;20048;-79
2022/11/10 08:56:00;;;;;;;4.97;1.30;;;12.50;99.90;;;;;;4984628;28;20749;-81
2022/11/10 08:58:59;;;;;;;;;;;;;;;;;;;;;
2022/11/10 09:01:27;;;;;;;11.45;3.75;;;12.50;99.90;;;;;;4958414;28;20098;-80
2022/11/10 09:03:53;;;;;;;4.63;1.95;;;12.50;99.90;;;;;;5018973;28;20097;-80
2022/11/10 09:06:45;;;;;;;;;;;;;;;;;;;;;
2022/11/10 09:09:48;;;;;;;3.70;1.40;;;12.20;99.90;;;;;;5045870;28;20045;-80
2022/11/10 09:13:20;;;;;;;6.72;1.88;;;12.10;99.90;;;;;;5040642;28;20026;-80
2022/11/10 09:15:48;;;;;;;5.43;2.00;;;12.00;99.90;;;;;;5020511;28;20037;-81
2022/11/10 09:18:26;;;;;;;4.47;1.80;;;12.00;99.90;;;;;;5020865;28;20022;-80
2022/11/10 09:21:25;;;;;;;4.85;1.90;;;12.00;99.90;;;;;;5038970;28;20056;-82
2022/11/10 09:34:14;;;;;;;6.15;1.60;;;12.20;99.90;;;;;;4902172;29;20079;-81
2022/11/10 09:36:40;;;;;;;4.97;1.60;;;12.10;99.90;;;;;;4939634;29;20059;-83
2022/11/10 09:39:06;;;;;;;7.97;2.65;;;12.00;99.90;;;;;;5011754;28;20093;-83
2022/11/10 09:41:37;;;;;;;6.45;1.67;;;11.80;99.90;;;;;;5024392;28;20022;-83
2022/11/10 09:44:05;;;;;;;6.05;2.17;;;11.70;99.90;;;;;;5026908;28;20038;-81
2022/11/10 09:46:37;;;;;;;7.20;2.08;;;11.60;99.90;;;;;;5029975;28;20100;-82
2022/11/10 09:49:24;;;;;;;3.13;1.45;;;11.70;99.90;;;;;;5053977;28;20032;-81
2022/11/10 09:51:54;;;;;;;4.43;1.42;;;12.10;99.90;;;;;;5042035;28;20034;-86
2022/11/10 09:54:35;;;;;;;7.15;1.48;;;12.60;99.90;;;;;;5038748;28;20029;-83
2022/11/10 09:57:03;;;;;;;2.08;1.13;;;13.10;99.60;;;;;;5030124;28;20034;-82
2022/11/10 09:59:31;;;;;;;5.82;1.50;;;13.70;98.90;;;;;;5021213;28;20034;-82
2022/11/10 10:02:08;;;;;;;2.42;1.00;;;14.20;97.20;;;;;;5023441;28;20029;-82
2022/11/10 10:04:49;;;;;;;5.43;1.30;;;14.60;96.20;;;;;;5024884;28;20029;-82
2022/11/10 10:07:59;;;;;;;4.05;1.20;;;15.00;93.30;;;;;;5026012;28;20033;-82
2022/11/10 10:10:44;;;;;;;1.83;0.95;;;15.20;90.60;;;;;;5007901;28;20137;-81
2022/11/10 10:13:31;;;;;;;5.07;1.08;;;15.40;90.90;;;;;;5035945;28;20061;-81
2022/11/10 10:16:17;;;;;;;2.92;1.30;;;15.40;89.60;;;;;;5063127;28;20067;-83
2022/11/10 10:19:04;;;;;;;4.20;1.13;;;15.20;87.10;;;;;;5026526;28;20072;-82
2022/11/10 10:21:38;;;;;;;3.95;1.17;;;15.00;89.70;;;;;;5031751;28;20081;-81
2022/11/10 10:24:09;;;;;;;1.92;1.13;;;14.90;90.20;;;;;;5035454;28;20046;-80
2022/11/10 10:26:40;;;;;;;5.70;1.20;;;14.90;88.50;;;;;;5030790;28;20121;-82
2022/11/10 10:29:13;;;;;;;3.42;1.30;;;15.10;86.60;;;;;;5046506;28;20040;-82
2022/11/10 10:31:46;;;;;;;3.90;1.02;;;15.20;85.30;;;;;;5047446;28;20049;-82
2022/11/10 10:34:17;;;;;;;4.57;1.10;;;15.30;86.60;;;;;;5046238;28;20055;-82
2022/11/10 10:36:44;;;;;;;2.30;1.00;;;15.50;86.50;;;;;;5042690;28;20348;-83
2022/11/10 10:39:19;;;;;;;3.78;1.05;;;15.70;86.00;;;;;;5026792;28;20056;-82
2022/11/10 10:41:46;;;;;;;2.30;0.80;;;15.80;84.40;;;;;;5039468;28;20021;-83
2022/11/10 10:44:15;;;;;;;3.13;1.00;;;15.70;84.20;;;;;;5034097;28;20018;-83
2022/11/10 10:46:47;;;;;;;6.13;1.45;;;15.60;82.20;;;;;;5041942;28;20049;-83
2022/11/10 10:49:21;;;;;;;3.70;1.60;;;15.40;79.40;;;;;;5033890;28;20029;-83
2022/11/10 10:51:49;;;;;;;4.07;1.17;;;14.80;80.40;;;;;;5035066;28;20090;-82
2022/11/10 10:54:34;;;;;;;2.70;1.15;;;14.50;83.20;;;;;;5036133;28;20018;-82
2022/11/10 10:57:01;;;;;;;1.38;0.70;;;14.20;84.30;;;;;;5031497;28;20033;-82
2022/11/10 10:59:26;;;;;;;1.48;0.80;;;14.20;86.20;;;;;;5028634;28;20376;-81
2022/11/10 11:01:54;;;;;;;7.05;1.13;;;14.20;86.80;;;;;;5023149;28;20101;-82
2022/11/10 11:04:27;;;;;;;3.83;1.35;;;14.30;86.80;;;;;;5022635;28;20026;-82
2022/11/10 11:07:05;;;;;;;3.30;1.38;;;14.40;87.20;;;;;;5020658;28;20025;-82
2022/11/10 11:09:42;;;;;;;2.85;1.10;;;14.50;86.10;;;;;;5034318;28;20021;-82
2022/11/10 11:12:17;;;;;;;3.53;1.42;;;14.60;86.10;;;;;;5036571;28;20108;-82
2022/11/10 11:14:42;;;;;;;5.25;1.13;;;14.70;84.40;;;;;;5036537;28;20025;-83
2022/11/10 11:17:20;;;;;;;4.72;1.13;;;14.90;83.50;;;;;;5041284;28;20032;-83
2022/11/10 11:19:50;;;;;;;3.42;0.98;;;15.10;83.40;;;;;;5028404;28;20021;-83
2022/11/10 11:22:25;;;;;;;5.25;1.63;;;15.30;82.10;;;;;;5021822;28;20034;-83
2022/11/10 11:25:13;;;;;;;7.22;1.48;;;15.40;80.30;;;;;;5021438;28;20057;-83
2022/11/10 11:27:48;;;;;;;4.22;1.30;;;15.30;79.70;;;;;;5022287;28;20030;-82
2022/11/10 11:30:20;;;;;;;3.50;1.30;;;14.90;78.90;;;;;;5033267;28;20100;-82
2022/11/10 11:33:04;;;;;;;3.08;1.17;;;14.60;81.00;;;;;;5042690;28;20444;-82
2022/11/10 11:36:18;;;;;;;2.30;1.45;;;14.30;82.70;;;;;;5052592;28;20034;-79
2022/11/10 11:39:30;;;;;;;2.25;0.90;;;14.10;83.90;;;;;;5010057;28;20038;-81
2022/11/10 11:42:17;;;;;;;4.00;1.25;;;13.90;84.80;;;;;;5031947;28;20076;-83
2022/11/10 11:45:04;;;;;;;4.82;1.13;;;14.10;84.20;;;;;;5029418;28;20022;-83
2022/11/10 11:48:01;;;;;;;2.50;1.20;;;14.30;83.40;;;;;;5030225;28;20022;-82
2022/11/10 11:50:54;;;;;;;4.32;0.85;;;14.60;80.80;;;;;;5055653;28;20063;-83
2022/11/10 11:53:35;;;;;;;2.15;0.77;;;14.60;81.40;;;;;;5041537;28;20122;-83
2022/11/10 11:56:19;;;;;;;2.30;0.95;;;14.60;75.10;;;;;;5049515;28;20021;-83
2022/11/10 11:59:19;;;;;;;4.55;1.08;;;14.60;74.60;;;;;;5051675;28;20101;-83
2022/11/10 12:02:13;;;;;;;3.22;0.90;;;14.50;74.80;;;;;;5035171;28;20018;-83
2022/11/10 12:05:04;;;;;;;1.60;0.70;;;14.50;75.60;;;;;;5032380;28;20077;-83
2022/11/10 12:07:55;;;;;;;3.13;1.13;;;14.60;75.60;;;;;;5013959;28;20029;-82
2022/11/10 12:10:35;;;;;;;3.00;1.20;;;14.70;75.60;;;;;;5039188;28;20010;-82
2022/11/10 12:13:29;;;;;;;3.50;1.00;;;14.80;74.70;;;;;;5042622;28;20034;-82
2022/11/10 12:16:01;;;;;;;2.58;0.98;;;14.80;74.90;;;;;;5033922;28;20044;-83
2022/11/10 12:18:37;;;;;;;3.78;0.88;;;14.80;74.40;;;;;;5031895;28;20030;-82
2022/11/10 12:21:17;;;;;;;3.47;0.90;;;14.90;74.20;;;;;;5033836;28;20006;-82
2022/11/10 12:23:52;;;;;;;4.53;1.00;;;15.00;73.80;;;;;;5025758;28;20053;-82
2022/11/10 12:26:31;;;;;;;3.45;1.00;;;14.90;72.40;;;;;;5034922;28;20033;-82
2022/11/10 12:29:14;;;;;;;1.33;0.80;;;14.90;73.20;;;;;;5027973;28;20030;-83
2022/11/10 12:31:44;;;;;;;7.70;0.90;;;14.90;73.10;;;;;;5029853;28;20048;-85
2022/11/10 12:34:14;;;;;;;2.22;0.82;;;14.90;73.50;;;;;;5030352;28;20030;-83
2022/11/10 12:36:41;;;;;;;3.33;0.88;;;14.80;73.80;;;;;;5023741;28;20026;-83
2022/11/10 12:39:36;;;;;;;2.67;0.75;;;14.80;74.30;;;;;;5027185;28;20109;-84
2022/11/10 12:42:04;;;;;;;1.20;0.52;;;14.90;71.60;;;;;;5035246;28;20013;-83
2022/11/10 12:44:42;;;;;;;1.17;0.65;;;14.90;71.70;;;;;;5029455;28;20060;-83
2022/11/10 12:47:14;;;;;;;2.35;0.98;;;14.90;71.80;;;;;;5024593;28;20149;-85
2022/11/10 12:49:43;;;;;;;;;;;14.90;70.70;;;;;;5026475;28;20030;-84
2022/11/10 12:52:14;;;;;;;1.65;0.60;;;14.80;71.70;;;;;;5036437;28;19921;-83
2022/11/10 12:54:44;;;;;;;2.97;0.90;;;14.80;72.10;;;;;;5036676;28;20014;-84
2022/11/10 12:57:20;;;;;;;4.57;1.25;;;14.80;72.70;;;;;;5036153;28;20041;-82
2022/11/10 13:00:27;;;;;;;2.47;0.90;;;14.90;72.60;;;;;;5036120;28;20077;-83
2022/11/10 13:02:55;;;;;;;3.80;0.98;;;15.00;72.20;;;;;;5003305;28;20022;-83
2022/11/10 13:05:29;;;;;;;0.80;0.70;;;15.20;71.10;;;;;;5036085;28;20022;-84
2022/11/10 13:08:27;;;;;;;3.22;1.10;;;15.20;71.90;;;;;;5031907;28;20105;-83
2022/11/10 13:11:05;;;;;;;3.67;0.60;;;15.30;70.20;;;;;;5025483;28;20044;-83
2022/11/10 13:14:00;;;;;;;5.03;0.95;;;15.40;69.80;;;;;;5066577;28;20049;-83
2022/11/10 13:16:39;;;;;;;3.05;0.68;;;15.50;68.50;;;;;;5041003;28;20017;-83
2022/11/10 13:19:11;;;;;;;4.28;1.02;;;15.50;67.80;;;;;;5053941;28;20042;-83
2022/11/10 13:21:51;;;;;;;4.85;1.17;;;15.50;68.10;;;;;;5046569;28;20021;-84
2022/11/10 13:24:23;;;;;;;3.53;0.88;;;15.50;68.70;;;;;;5044622;28;20089;-85
2022/11/10 13:27:00;;;;;;;6.15;1.33;;;15.60;69.00;;;;;;5024463;28;20030;-84
2022/11/10 13:29:33;;;;;;;2.65;1.17;;;15.70;67.60;;;;;;5024814;28;20034;-84
2022/11/10 13:32:14;;;;;;;3.88;0.82;;;15.80;68.00;;;;;;5025797;28;20104;-84
2022/11/10 13:34:41;;;;;;;2.90;0.80;;;15.70;70.40;;;;;;5040247;28;20029;-84
2022/11/10 13:37:28;;;;;;;1.40;0.57;;;15.50;72.00;;;;;;5054915;28;20064;-84
2022/11/10 13:40:19;;;;;;;3.15;1.00;;;15.50;73.20;;;;;;5052458;28;20096;-82